Time;durP1;ratioP1;P1;durP2;ratioP2;P2;SDS_P1;SDS_P2;PMS_P1;PMS_P2;Temp;Humidity;BMP_temperature;BMP_pressure;BME280_temperature;BME280_humidity;BME280_pressure;Samples;Min_cycle;Max_cycle;Signal;HPM_P1;HPM_P2
2023/12/06 00:00:19;;;;;;;3.25;2.13;;;;;;;;;;8278447;28;20403;-56
2023/12/06 00:04:19;;;;;;;2.53;2.33;;;;;;;;;;8275666;28;20429;-57
2023/12/06 00:08:19;;;;;;;2.45;2.25;;;;;;;;;;8279268;28;20079;-56
2023/12/06 00:12:19;;;;;;;2.15;2.05;;;;;;;;;;8282937;28;20029;-57
2023/12/06 00:16:20;;;;;;;2.40;2.20;;;;;;;;;;8284739;28;21059;-56
2023/12/06 00:20:20;;;;;;;2.72;2.53;;;;;;;;;;8283852;28;20275;-57
2023/12/06 00:24:20;;;;;;;2.65;2.45;;;;;;;;;;8285619;28;20940;-57
2023/12/06 00:28:20;;;;;;;2.42;2.22;;;;;;;;;;8284037;28;20028;-57
2023/12/06 00:32:20;;;;;;;4.25;2.30;;;;;;;;;;8280203;28;20036;-57
2023/12/06 00:36:21;;;;;;;2.83;2.63;;;;;;;;;;8282182;28;20136;-56
2023/12/06 00:40:21;;;;;;;3.08;2.80;;;;;;;;;;8282553;28;20468;-57
2023/12/06 00:44:21;;;;;;;2.80;2.60;;;;;;;;;;8283917;28;20021;-56
2023/12/06 00:48:21;;;;;;;2.60;2.40;;;;;;;;;;8282639;28;20044;-56
2023/12/06 00:52:22;;;;;;;2.70;2.50;;;;;;;;;;8282780;28;20275;-55
2023/12/06 00:56:22;;;;;;;3.85;2.85;;;;;;;;;;8281493;28;20403;-57
2023/12/06 01:00:22;;;;;;;3.40;2.75;;;;;;;;;;8279625;28;20033;-56
2023/12/06 01:04:23;;;;;;;3.00;2.75;;;;;;;;;;8277879;28;20794;-56
2023/12/06 01:08:24;;;;;;;3.30;3.00;;;;;;;;;;8280656;28;20033;-56
2023/12/06 01:12:25;;;;;;;3.47;3.17;;;;;;;;;;8283676;28;20275;-56
2023/12/06 01:16:25;;;;;;;3.58;3.28;;;;;;;;;;8276491;28;20091;-55
2023/12/06 01:20:25;;;;;;;4.15;3.15;;;;;;;;;;8279458;28;20036;-56
2023/12/06 01:24:25;;;;;;;3.65;3.35;;;;;;;;;;8280947;28;20099;-57
2023/12/06 01:28:26;;;;;;;3.88;3.20;;;;;;;;;;8280587;28;20709;-56
2023/12/06 01:32:26;;;;;;;4.30;3.90;;;;;;;;;;8279489;28;20025;-57
2023/12/06 01:36:26;;;;;;;3.85;3.55;;;;;;;;;;8283368;28;20358;-57
2023/12/06 01:40:26;;;;;;;3.55;3.25;;;;;;;;;;8280607;28;20029;-57
2023/12/06 01:44:27;;;;;;;3.53;3.22;;;;;;;;;;8278183;28;20025;-55
2023/12/06 01:48:27;;;;;;;4.10;3.70;;;;;;;;;;8281438;28;20449;-57
2023/12/06 01:52:27;;;;;;;4.67;4.13;;;;;;;;;;8283201;28;20287;-56
2023/12/06 01:56:28;;;;;;;3.58;3.28;;;;;;;;;;8283212;28;20348;-56
2023/12/06 02:00:28;;;;;;;4.32;3.92;;;;;;;;;;8278500;28;20693;-56
2023/12/06 02:04:28;;;;;;;4.35;3.90;;;;;;;;;;8277314;28;20037;-56
2023/12/06 02:08:30;;;;;;;5.05;3.92;;;;;;;;;;8286089;28;21757;-56
2023/12/06 02:12:31;;;;;;;5.25;4.40;;;;;;;;;;8278674;28;20124;-56
2023/12/06 02:16:31;;;;;;;4.30;3.90;;;;;;;;;;8279287;28;20155;-54
2023/12/06 02:20:31;;;;;;;4.97;4.00;;;;;;;;;;8279634;28;20801;-55
2023/12/06 02:24:32;;;;;;;4.90;4.00;;;;;;;;;;8285252;28;20017;-56
2023/12/06 02:28:32;;;;;;;5.05;3.42;;;;;;;;;;8280858;28;20164;-57
2023/12/06 02:32:33;;;;;;;5.28;4.03;;;;;;;;;;8286599;28;20371;-54
2023/12/06 02:36:33;;;;;;;4.25;3.42;;;;;;;;;;8280128;28;20064;-56
2023/12/06 02:40:34;;;;;;;6.25;4.00;;;;;;;;;;8278694;28;20106;-56
2023/12/06 02:44:34;;;;;;;4.82;4.03;;;;;;;;;;8281059;28;20037;-56
2023/12/06 02:48:34;;;;;;;7.07;4.30;;;;;;;;;;8280662;28;20503;-56
2023/12/06 02:52:35;;;;;;;6.23;4.70;;;;;;;;;;8279174;28;20025;-56
2023/12/06 02:56:35;;;;;;;4.43;4.00;;;;;;;;;;8284396;28;20296;-60
2023/12/06 03:00:35;;;;;;;7.05;4.65;;;;;;;;;;8284961;28;20037;-56
2023/12/06 03:04:35;;;;;;;4.68;3.97;;;;;;;;;;8283521;28;20053;-55
2023/12/06 03:08:35;;;;;;;5.70;4.40;;;;;;;;;;8285907;28;20465;-55
2023/12/06 03:12:35;;;;;;;4.20;3.55;;;;;;;;;;8284313;28;20028;-55
2023/12/06 03:16:36;;;;;;;5.85;4.03;;;;;;;;;;8285881;28;20041;-56
2023/12/06 03:20:36;;;;;;;5.20;4.47;;;;;;;;;;8285922;28;20021;-56
2023/12/06 03:24:36;;;;;;;4.80;4.30;;;;;;;;;;8284937;28;20364;-56
2023/12/06 03:28:36;;;;;;;5.13;4.32;;;;;;;;;;8288672;28;20074;-54
2023/12/06 03:32:38;;;;;;;5.50;4.50;;;;;;;;;;8279268;28;20452;-56
2023/12/06 03:36:38;;;;;;;4.07;3.67;;;;;;;;;;8280977;28;20021;-55
2023/12/06 03:40:39;;;;;;;4.80;4.22;;;;;;;;;;8283690;28;20984;-56
2023/12/06 03:44:39;;;;;;;4.30;3.90;;;;;;;;;;8285537;28;20112;-57
2023/12/06 03:48:39;;;;;;;4.53;4.13;;;;;;;;;;8294324;28;20494;-57
2023/12/06 03:52:40;;;;;;;4.88;4.38;;;;;;;;;;8287664;28;20035;-57
2023/12/06 03:56:41;;;;;;;4.23;3.50;;;;;;;;;;8293340;28;20021;-55
2023/12/06 04:00:41;;;;;;;4.50;3.88;;;;;;;;;;8287103;28;20337;-56
2023/12/06 04:04:41;;;;;;;5.50;3.58;;;;;;;;;;8286302;28;20036;-56
2023/12/06 04:08:41;;;;;;;3.83;3.42;;;;;;;;;;8287125;28;20147;-55
2023/12/06 04:12:41;;;;;;;4.53;3.97;;;;;;;;;;8284397;28;20028;-56
2023/12/06 04:16:42;;;;;;;4.72;3.53;;;;;;;;;;8283135;28;20107;-55
2023/12/06 04:20:42;;;;;;;4.50;3.35;;;;;;;;;;8283993;28;20057;-57
2023/12/06 04:24:42;;;;;;;4.72;4.00;;;;;;;;;;8285249;28;20122;-56
2023/12/06 04:28:42;;;;;;;3.92;3.60;;;;;;;;;;8281290;28;20336;-55
2023/12/06 04:32:43;;;;;;;3.80;3.42;;;;;;;;;;8283233;28;20048;-55
2023/12/06 04:36:43;;;;;;;4.45;3.63;;;;;;;;;;8282798;28;20033;-56
2023/12/06 04:40:43;;;;;;;4.20;3.72;;;;;;;;;;8284952;28;20029;-56
2023/12/06 04:44:43;;;;;;;4.22;3.65;;;;;;;;;;8285437;28;20025;-57
2023/12/06 04:48:43;;;;;;;6.40;4.28;;;;;;;;;;8283996;28;20030;-56
2023/12/06 04:52:44;;;;;;;4.25;3.85;;;;;;;;;;8280144;28;20114;-57
2023/12/06 04:56:44;;;;;;;4.93;3.88;;;;;;;;;;8283160;28;20095;-58
2023/12/06 05:00:45;;;;;;;5.32;4.28;;;;;;;;;;8278421;28;20129;-57
2023/12/06 05:04:45;;;;;;;4.50;3.65;;;;;;;;;;8284577;28;20079;-58
2023/12/06 05:08:45;;;;;;;4.47;3.88;;;;;;;;;;8279303;28;20045;-57
2023/12/06 05:12:45;;;;;;;5.70;4.97;;;;;;;;;;8281366;28;20398;-56
2023/12/06 05:16:45;;;;;;;6.38;4.97;;;;;;;;;;8281673;28;20748;-57
2023/12/06 05:20:46;;;;;;;6.47;5.43;;;;;;;;;;8278921;28;20401;-56
2023/12/06 05:24:46;;;;;;;7.63;6.13;;;;;;;;;;8279728;28;20767;-58
2023/12/06 05:28:46;;;;;;;6.85;5.80;;;;;;;;;;8281168;28;20345;-57
2023/12/06 05:32:46;;;;;;;8.48;5.85;;;;;;;;;;8278428;28;20524;-59
2023/12/06 05:36:47;;;;;;;7.55;6.40;;;;;;;;;;8274224;28;20103;-58
2023/12/06 05:40:47;;;;;;;7.13;6.28;;;;;;;;;;8280782;28;20026;-57
2023/12/06 05:44:48;;;;;;;7.40;5.80;;;;;;;;;;8280971;28;20032;-57
2023/12/06 05:48:48;;;;;;;6.97;5.70;;;;;;;;;;8279538;28;20838;-57
2023/12/06 05:52:49;;;;;;;5.70;5.15;;;;;;;;;;8262980;28;20600;-57
2023/12/06 05:56:49;;;;;;;6.05;4.93;;;;;;;;;;8280410;28;20029;-56
2023/12/06 06:00:49;;;;;;;5.78;5.13;;;;;;;;;;8280537;28;20797;-57
2023/12/06 06:04:49;;;;;;;7.90;4.28;;;;;;;;;;8275788;28;20028;-58
2023/12/06 06:08:50;;;;;;;5.53;4.93;;;;;;;;;;8274029;28;20063;-53
2023/12/06 06:12:50;;;;;;;4.57;4.18;;;;;;;;;;8279338;28;20288;-56
2023/12/06 06:16:50;;;;;;;4.95;4.38;;;;;;;;;;8270602;28;20044;-56
2023/12/06 06:20:51;;;;;;;4.40;3.80;;;;;;;;;;8281033;28;20024;-56
2023/12/06 06:24:51;;;;;;;4.93;4.43;;;;;;;;;;8280657;28;20143;-56
2023/12/06 06:28:51;;;;;;;4.38;3.97;;;;;;;;;;8281568;28;20129;-58
2023/12/06 06:32:51;;;;;;;4.25;3.80;;;;;;;;;;8286796;28;20033;-57
2023/12/06 06:36:52;;;;;;;3.90;3.50;;;;;;;;;;8282376;28;20029;-57
2023/12/06 06:40:52;;;;;;;4.57;4.18;;;;;;;;;;8280954;28;20040;-57
2023/12/06 06:44:55;;;;;;;4.60;4.20;;;;;;;;;;8293601;28;20095;-57
2023/12/06 06:48:56;;;;;;;4.05;3.65;;;;;;;;;;8293815;28;20033;-57
2023/12/06 06:52:58;;;;;;;4.70;4.10;;;;;;;;;;8280613;28;20025;-56
2023/12/06 06:56:59;;;;;;;3.65;3.35;;;;;;;;;;8287704;28;20029;-56
2023/12/06 07:00:59;;;;;;;5.70;3.53;;;;;;;;;;8280878;28;20786;-57
2023/12/06 07:05:00;;;;;;;3.40;3.10;;;;;;;;;;8289981;28;20025;-56
2023/12/06 07:09:00;;;;;;;3.92;3.63;;;;;;;;;;8266219;28;20498;-56
2023/12/06 07:13:00;;;;;;;4.28;3.88;;;;;;;;;;8282153;28;20747;-54
2023/12/06 07:17:01;;;;;;;4.00;3.60;;;;;;;;;;8281480;28;20088;-56
2023/12/06 07:21:01;;;;;;;4.15;3.40;;;;;;;;;;8286509;28;20029;-57
2023/12/06 07:25:02;;;;;;;4.10;3.70;;;;;;;;;;8283905;28;20037;-57
2023/12/06 07:29:03;;;;;;;4.80;4.10;;;;;;;;;;8282792;28;20030;-57
2023/12/06 07:33:03;;;;;;;6.63;3.77;;;;;;;;;;8284649;28;20040;-56
2023/12/06 07:37:03;;;;;;;4.47;4.07;;;;;;;;;;8282356;28;20299;-57
2023/12/06 07:41:04;;;;;;;5.30;4.03;;;;;;;;;;8284612;28;20512;-57
2023/12/06 07:45:05;;;;;;;5.20;4.45;;;;;;;;;;8285998;28;20021;-56
2023/12/06 07:49:05;;;;;;;4.75;4.20;;;;;;;;;;8269586;28;20082;-59
2023/12/06 07:53:07;;;;;;;6.35;4.25;;;;;;;;;;8272101;28;20033;-57
2023/12/06 07:57:07;;;;;;;4.75;4.18;;;;;;;;;;8296568;28;20037;-57
2023/12/06 08:01:07;;;;;;;5.65;4.93;;;;;;;;;;8285866;28;21883;-57
2023/12/06 08:05:09;;;;;;;5.40;4.00;;;;;;;;;;8297205;28;20029;-57
2023/12/06 08:09:12;;;;;;;5.40;4.65;;;;;;;;;;8289139;28;21132;-58
2023/12/06 08:13:12;;;;;;;4.82;4.15;;;;;;;;;;8271049;28;20095;-57
2023/12/06 08:17:12;;;;;;;4.55;3.85;;;;;;;;;;8295473;28;20037;-56
2023/12/06 08:21:13;;;;;;;5.53;4.60;;;;;;;;;;8285155;28;20082;-56
2023/12/06 08:25:13;;;;;;;5.33;4.23;;;;;;;;;;8272670;28;20267;-57
2023/12/06 08:29:13;;;;;;;5.18;4.50;;;;;;;;;;8283808;28;20284;-57
2023/12/06 08:33:13;;;;;;;5.07;4.22;;;;;;;;;;8284893;28;20694;-57
2023/12/06 08:37:14;;;;;;;5.78;4.70;;;;;;;;;;8285983;28;20016;-56
2023/12/06 08:41:14;;;;;;;4.95;4.20;;;;;;;;;;8266816;28;20025;-57
2023/12/06 08:45:15;;;;;;;5.43;4.45;;;;;;;;;;8295928;28;20111;-56
2023/12/06 08:49:15;;;;;;;5.65;4.75;;;;;;;;;;8296566;28;20124;-58
2023/12/06 08:53:15;;;;;;;6.93;5.05;;;;;;;;;;8284274;28;20112;-56
2023/12/06 08:57:15;;;;;;;4.60;4.10;;;;;;;;;;8285314;28;20018;-57
2023/12/06 09:01:16;;;;;;;7.50;4.63;;;;;;;;;;8279595;28;20028;-56
2023/12/06 09:05:17;;;;;;;5.93;4.55;;;;;;;;;;8292273;28;20012;-56
2023/12/06 09:09:17;;;;;;;4.45;4.05;;;;;;;;;;8282095;28;20028;-56
2023/12/06 09:13:17;;;;;;;5.35;4.38;;;;;;;;;;8281892;28;20025;-57
2023/12/06 09:17:17;;;;;;;5.72;4.45;;;;;;;;;;8287104;28;20065;-55
2023/12/06 09:21:18;;;;;;;4.35;3.95;;;;;;;;;;8283150;28;20021;-57
2023/12/06 09:25:18;;;;;;;5.53;3.95;;;;;;;;;;8283348;28;20020;-55
2023/12/06 09:29:18;;;;;;;6.53;4.23;;;;;;;;;;8283197;28;20063;-57
2023/12/06 09:33:19;;;;;;;4.18;3.67;;;;;;;;;;8283244;28;20287;-57
2023/12/06 09:37:19;;;;;;;4.40;4.00;;;;;;;;;;8282697;28;20840;-56
2023/12/06 09:41:20;;;;;;;5.90;4.07;;;;;;;;;;8267299;28;20127;-56
2023/12/06 09:45:20;;;;;;;5.35;4.30;;;;;;;;;;8280109;28;20044;-57
2023/12/06 09:49:21;;;;;;;6.15;4.80;;;;;;;;;;8283651;28;21357;-56
2023/12/06 09:53:21;;;;;;;6.45;5.10;;;;;;;;;;8283089;28;20449;-55
2023/12/06 09:57:22;;;;;;;6.07;4.78;;;;;;;;;;8282704;28;20026;-57
2023/12/06 10:01:22;;;;;;;8.80;4.75;;;;;;;;;;8282761;28;20087;-55
2023/12/06 10:05:22;;;;;;;6.30;4.80;;;;;;;;;;8282395;28;20056;-56
2023/12/06 10:09:22;;;;;;;7.60;5.43;;;;;;;;;;8276823;28;20287;-56
2023/12/06 10:13:30;;;;;;;7.35;4.63;;;;;;;;;;8281806;28;20037;-54
2023/12/06 10:17:30;;;;;;;6.57;4.72;;;;;;;;;;8283423;28;20033;-56
2023/12/06 10:21:30;;;;;;;5.95;4.35;;;;;;;;;;8282130;28;20098;-56
2023/12/06 10:25:39;;;;;;;5.68;4.70;;;;;;;;;;8280967;28;20094;-55
2023/12/06 10:29:39;;;;;;;6.03;4.28;;;;;;;;;;8278279;28;20425;-56
2023/12/06 10:33:40;;;;;;;6.45;4.65;;;;;;;;;;8279556;28;20146;-57
2023/12/06 10:37:41;;;;;;;7.03;4.78;;;;;;;;;;8278862;28;20813;-55
2023/12/06 10:41:43;;;;;;;6.25;4.65;;;;;;;;;;8278319;28;20049;-55
2023/12/06 10:45:46;;;;;;;6.18;4.40;;;;;;;;;;8279533;28;20029;-56
2023/12/06 10:49:46;;;;;;;6.65;4.93;;;;;;;;;;8281005;28;20032;-55
2023/12/06 10:53:47;;;;;;;6.70;4.95;;;;;;;;;;8281651;28;20369;-57
2023/12/06 10:57:50;;;;;;;5.80;4.78;;;;;;;;;;8284311;28;20037;-57
2023/12/06 11:01:51;;;;;;;6.85;4.65;;;;;;;;;;8282290;28;20061;-57
2023/12/06 11:05:53;;;;;;;6.35;4.43;;;;;;;;;;8288762;28;20025;-57
2023/12/06 11:10:12;;;;;;;5.22;4.10;;;;;;;;;;8289463;28;20482;-56
2023/12/06 11:14:31;;;;;;;5.68;4.30;;;;;;;;;;8281040;28;20075;-57
2023/12/06 11:18:35;;;;;;;7.30;5.10;;;;;;;;;;8288792;28;20397;-57
2023/12/06 11:22:37;;;;;;;6.97;4.95;;;;;;;;;;8284254;28;20022;-57
2023/12/06 11:26:37;;;;;;;5.15;4.18;;;;;;;;;;8284319;28;20029;-55
2023/12/06 11:30:47;;;;;;;4.53;3.70;;;;;;;;;;8285024;28;20037;-57
2023/12/06 11:34:55;;;;;;;4.85;4.10;;;;;;;;;;8287338;28;20030;-57
2023/12/06 11:38:55;;;;;;;4.72;3.88;;;;;;;;;;8288996;28;20049;-57
2023/12/06 11:42:56;;;;;;;4.27;3.87;;;;;;;;;;8286559;28;20025;-57
2023/12/06 11:46:57;;;;;;;5.10;4.10;;;;;;;;;;8291769;28;20303;-55
2023/12/06 11:50:58;;;;;;;5.43;3.58;;;;;;;;;;8288600;28;20059;-55
2023/12/06 11:54:59;;;;;;;8.20;4.20;;;;;;;;;;8282221;28;20033;-57
2023/12/06 11:59:02;;;;;;;5.18;3.95;;;;;;;;;;8286133;28;20226;-55
2023/12/06 12:03:03;;;;;;;6.95;3.90;;;;;;;;;;8280850;28;21425;-57
2023/12/06 12:07:03;;;;;;;4.32;3.80;;;;;;;;;;8288036;28;20029;-55
2023/12/06 12:11:04;;;;;;;5.30;4.25;;;;;;;;;;8284891;28;20033;-58
2023/12/06 12:15:05;;;;;;;4.57;3.97;;;;;;;;;;8290961;28;20030;-57
2023/12/06 12:19:06;;;;;;;4.97;4.20;;;;;;;;;;8283973;28;20164;-56
2023/12/06 12:23:07;;;;;;;4.25;3.50;;;;;;;;;;8282289;28;22712;-57
2023/12/06 12:27:07;;;;;;;5.40;4.10;;;;;;;;;;8284498;28;20813;-56
2023/12/06 12:31:10;;;;;;;5.65;4.43;;;;;;;;;;8284283;28;20048;-57
2023/12/06 12:35:11;;;;;;;4.20;3.80;;;;;;;;;;8286996;28;20040;-56
2023/12/06 12:39:13;;;;;;;4.40;3.80;;;;;;;;;;8284161;28;20021;-56
2023/12/06 12:43:13;;;;;;;6.20;4.35;;;;;;;;;;8276445;28;20025;-56
2023/12/06 12:47:14;;;;;;;5.43;3.93;;;;;;;;;;8280281;28;20030;-57
2023/12/06 12:51:15;;;;;;;4.30;3.50;;;;;;;;;;8279454;28;20276;-56
2023/12/06 12:55:16;;;;;;;5.20;4.00;;;;;;;;;;8282109;28;20025;-56
2023/12/06 12:59:17;;;;;;;4.43;3.80;;;;;;;;;;8283636;28;20433;-55
2023/12/06 13:03:17;;;;;;;5.25;4.28;;;;;;;;;;8278549;28;20398;-56
2023/12/06 13:07:17;;;;;;;6.45;5.00;;;;;;;;;;8281533;28;20039;-56
2023/12/06 13:11:18;;;;;;;5.53;3.85;;;;;;;;;;8279435;28;20021;-57
2023/12/06 13:15:19;;;;;;;5.78;4.43;;;;;;;;;;8282601;28;20052;-57
2023/12/06 13:19:19;;;;;;;4.85;4.18;;;;;;;;;;8285963;28;20032;-56
2023/12/06 13:23:20;;;;;;;5.53;4.40;;;;;;;;;;8283331;28;20112;-55
2023/12/06 13:27:21;;;;;;;5.05;4.10;;;;;;;;;;8279740;28;20061;-58
2023/12/06 13:31:21;;;;;;;4.32;3.33;;;;;;;;;;8276113;28;20122;-57
2023/12/06 13:35:22;;;;;;;4.35;3.92;;;;;;;;;;8276790;28;20032;-57
2023/12/06 13:39:23;;;;;;;5.25;3.95;;;;;;;;;;8279053;28;20013;-56
2023/12/06 13:43:23;;;;;;;5.13;4.07;;;;;;;;;;8281383;28;20031;-57
2023/12/06 13:47:24;;;;;;;5.57;3.83;;;;;;;;;;8276623;28;20033;-57
2023/12/06 13:51:24;;;;;;;8.85;5.55;;;;;;;;;;8276547;28;20357;-57
2023/12/06 13:55:24;;;;;;;5.15;4.13;;;;;;;;;;8280167;28;20037;-56
2023/12/06 13:59:25;;;;;;;5.27;4.03;;;;;;;;;;8270038;28;20028;-57
2023/12/06 14:03:27;;;;;;;4.35;3.95;;;;;;;;;;8273928;28;20316;-55
2023/12/06 14:07:27;;;;;;;5.70;4.70;;;;;;;;;;8269539;28;20067;-58
2023/12/06 14:11:27;;;;;;;5.27;4.13;;;;;;;;;;8262718;28;20141;-58
2023/12/06 14:15:27;;;;;;;3.90;3.42;;;;;;;;;;8274849;28;20345;-58
2023/12/06 14:19:28;;;;;;;4.75;4.13;;;;;;;;;;8280552;28;20108;-58
2023/12/06 14:23:28;;;;;;;3.75;3.38;;;;;;;;;;8277996;28;20032;-57
2023/12/06 14:27:28;;;;;;;5.22;3.70;;;;;;;;;;8281610;28;20029;-54
2023/12/06 14:31:28;;;;;;;5.82;4.20;;;;;;;;;;8279817;28;20034;-57
2023/12/06 14:35:28;;;;;;;4.20;3.75;;;;;;;;;;8281555;28;20114;-54
2023/12/06 14:39:29;;;;;;;5.40;4.10;;;;;;;;;;8278873;28;20033;-56
2023/12/06 14:43:29;;;;;;;5.87;4.67;;;;;;;;;;8278144;28;20272;-56
2023/12/06 14:47:29;;;;;;;7.50;4.60;;;;;;;;;;8280407;28;20260;-55
2023/12/06 14:51:29;;;;;;;6.45;4.68;;;;;;;;;;8282396;28;20260;-56
2023/12/06 14:55:30;;;;;;;6.82;4.32;;;;;;;;;;8288082;28;20035;-56
2023/12/06 14:59:30;;;;;;;5.45;4.40;;;;;;;;;;8280899;28;20028;-56
2023/12/06 15:03:30;;;;;;;6.55;4.63;;;;;;;;;;8285257;28;20033;-56
2023/12/06 15:07:30;;;;;;;8.73;4.60;;;;;;;;;;8277891;28;20035;-56
2023/12/06 15:11:30;;;;;;;8.25;4.30;;;;;;;;;;8277885;28;20033;-58
2023/12/06 15:15:30;;;;;;;7.13;4.43;;;;;;;;;;8275489;28;20049;-56
2023/12/06 15:19:31;;;;;;;9.70;4.40;;;;;;;;;;8278578;28;20280;-57
2023/12/06 15:23:31;;;;;;;7.65;4.03;;;;;;;;;;8279378;28;20201;-56
2023/12/06 15:27:32;;;;;;;7.20;4.43;;;;;;;;;;8280227;28;20025;-58
2023/12/06 15:31:32;;;;;;;6.05;4.13;;;;;;;;;;8282463;28;20497;-58
2023/12/06 15:35:32;;;;;;;4.60;3.63;;;;;;;;;;8284687;28;20124;-57
2023/12/06 15:39:32;;;;;;;6.10;3.90;;;;;;;;;;8286308;28;20034;-58
2023/12/06 15:43:33;;;;;;;5.72;4.38;;;;;;;;;;8282381;28;20760;-56
2023/12/06 15:47:33;;;;;;;5.57;3.80;;;;;;;;;;8280348;28;20144;-59
2023/12/06 15:51:34;;;;;;;3.95;3.55;;;;;;;;;;8281702;28;20013;-56
2023/12/06 15:55:34;;;;;;;5.97;4.22;;;;;;;;;;8290753;28;20083;-57
2023/12/06 15:59:34;;;;;;;5.83;3.50;;;;;;;;;;8284166;28;20025;-57
2023/12/06 16:03:34;;;;;;;11.68;4.18;;;;;;;;;;8283828;28;20263;-56
2023/12/06 16:07:39;;;;;;;9.88;4.63;;;;;;;;;;8279519;28;21126;-56
2023/12/06 16:11:40;;;;;;;5.70;4.03;;;;;;;;;;8273502;28;20106;-57
2023/12/06 16:15:41;;;;;;;4.97;4.07;;;;;;;;;;8288940;28;20045;-58
2023/12/06 16:19:41;;;;;;;8.43;3.95;;;;;;;;;;8275375;28;20024;-57
2023/12/06 16:23:41;;;;;;;6.00;3.72;;;;;;;;;;8276130;28;20562;-58
2023/12/06 16:27:42;;;;;;;4.90;3.70;;;;;;;;;;8277997;28;20099;-57
2023/12/06 16:31:42;;;;;;;5.50;3.80;;;;;;;;;;8281132;28;20090;-57
2023/12/06 16:35:42;;;;;;;5.18;3.85;;;;;;;;;;8282066;28;20034;-56
2023/12/06 16:39:43;;;;;;;7.93;4.10;;;;;;;;;;8273333;28;21010;-57
2023/12/06 16:43:43;;;;;;;4.80;3.40;;;;;;;;;;8272389;28;20026;-57
2023/12/06 16:47:44;;;;;;;5.07;3.60;;;;;;;;;;8273888;28;20040;-58
2023/12/06 16:51:44;;;;;;;3.90;3.20;;;;;;;;;;8276305;28;20151;-56
2023/12/06 16:55:45;;;;;;;4.43;3.25;;;;;;;;;;8278010;28;20701;-58
2023/12/06 16:59:45;;;;;;;4.47;3.23;;;;;;;;;;8274570;28;20088;-57
2023/12/06 17:03:46;;;;;;;5.35;3.50;;;;;;;;;;8249150;28;20310;-58
2023/12/06 17:07:46;;;;;;;6.28;3.30;;;;;;;;;;8269932;28;20025;-57
2023/12/06 17:11:46;;;;;;;6.65;3.47;;;;;;;;;;8271948;28;20025;-57
2023/12/06 17:15:47;;;;;;;3.80;2.97;;;;;;;;;;8273407;28;20043;-57
2023/12/06 17:19:47;;;;;;;5.37;3.43;;;;;;;;;;8271355;28;20348;-57
2023/12/06 17:23:49;;;;;;;4.00;3.17;;;;;;;;;;8269200;28;20287;-57
2023/12/06 17:27:49;;;;;;;5.85;3.35;;;;;;;;;;8270652;28;20792;-57
2023/12/06 17:31:49;;;;;;;5.25;3.47;;;;;;;;;;8267640;28;20119;-56
2023/12/06 17:35:50;;;;;;;6.63;3.27;;;;;;;;;;8266959;28;20029;-56
2023/12/06 17:39:50;;;;;;;5.40;3.40;;;;;;;;;;8268026;28;20272;-58
2023/12/06 17:43:50;;;;;;;6.68;3.80;;;;;;;;;;8270853;28;20809;-56
2023/12/06 17:47:51;;;;;;;8.25;3.80;;;;;;;;;;8269165;28;20036;-56
2023/12/06 17:51:51;;;;;;;5.13;3.58;;;;;;;;;;8268047;28;20033;-57
2023/12/06 17:55:52;;;;;;;5.43;3.47;;;;;;;;;;8271089;28;20025;-56
2023/12/06 17:59:52;;;;;;;6.05;3.63;;;;;;;;;;8271816;28;20409;-57
2023/12/06 18:03:52;;;;;;;5.07;3.35;;;;;;;;;;8248217;28;20071;-57
2023/12/06 18:07:53;;;;;;;4.25;3.42;;;;;;;;;;8274436;28;20151;-56
2023/12/06 18:11:54;;;;;;;5.72;3.88;;;;;;;;;;8271424;28;20046;-56
2023/12/06 18:15:54;;;;;;;4.55;3.53;;;;;;;;;;8270419;28;20159;-58
2023/12/06 18:19:54;;;;;;;4.87;3.63;;;;;;;;;;8270077;28;20027;-57
2023/12/06 18:23:54;;;;;;;8.48;3.58;;;;;;;;;;8267826;28;20354;-56
2023/12/06 18:27:55;;;;;;;6.63;3.70;;;;;;;;;;8272057;28;20029;-57
2023/12/06 18:31:55;;;;;;;7.45;3.60;;;;;;;;;;8255595;28;20040;-57
2023/12/06 18:35:55;;;;;;;4.40;3.55;;;;;;;;;;8270816;28;20016;-57
2023/12/06 18:39:55;;;;;;;7.38;4.05;;;;;;;;;;8265846;28;20029;-56
2023/12/06 18:43:56;;;;;;;4.95;3.67;;;;;;;;;;8271708;28;20234;-56
2023/12/06 18:47:56;;;;;;;8.13;4.00;;;;;;;;;;8270106;28;20087;-56
2023/12/06 18:51:57;;;;;;;6.33;4.00;;;;;;;;;;8268052;28;20018;-56
2023/12/06 18:55:57;;;;;;;5.00;3.50;;;;;;;;;;8269919;28;20305;-56
2023/12/06 18:59:57;;;;;;;7.80;4.05;;;;;;;;;;8270152;28;21283;-56
2023/12/06 19:03:58;;;;;;;5.13;3.92;;;;;;;;;;8268640;28;20140;-56
2023/12/06 19:07:58;;;;;;;9.68;3.90;;;;;;;;;;8267126;28;20119;-56
2023/12/06 19:11:58;;;;;;;6.15;3.78;;;;;;;;;;8272834;28;20040;-56
2023/12/06 19:16:02;;;;;;;6.07;4.50;;;;;;;;;;8271995;28;20682;-56
2023/12/06 19:20:03;;;;;;;6.93;3.90;;;;;;;;;;8274217;28;20470;-57
2023/12/06 19:24:03;;;;;;;6.50;4.38;;;;;;;;;;8275826;28;20036;-56
2023/12/06 19:28:03;;;;;;;8.52;4.45;;;;;;;;;;8279263;28;20026;-56
2023/12/06 19:32:04;;;;;;;4.77;3.90;;;;;;;;;;8275214;28;22882;-58
2023/12/06 19:36:04;;;;;;;7.03;3.90;;;;;;;;;;8277552;28;22580;-57
2023/12/06 19:40:09;;;;;;;6.00;3.80;;;;;;;;;;8278005;28;20035;-57
2023/12/06 19:44:09;;;;;;;5.40;3.72;;;;;;;;;;8284106;28;20557;-57
2023/12/06 19:48:11;;;;;;;4.90;3.55;;;;;;;;;;8281010;28;20822;-57
2023/12/06 19:52:11;;;;;;;5.07;3.92;;;;;;;;;;8280964;28;20021;-56
2023/12/06 19:56:12;;;;;;;8.10;4.10;;;;;;;;;;8284361;28;20905;-57
2023/12/06 20:00:12;;;;;;;7.47;4.17;;;;;;;;;;8260773;28;20021;-57
2023/12/06 20:04:12;;;;;;;7.38;3.90;;;;;;;;;;8271817;28;20278;-57
2023/12/06 20:08:13;;;;;;;5.18;3.72;;;;;;;;;;8278449;28;20098;-56
2023/12/06 20:12:15;;;;;;;9.20;4.20;;;;;;;;;;8280280;28;20422;-56
2023/12/06 20:16:16;;;;;;;9.40;3.90;;;;;;;;;;8277359;28;20159;-56
2023/12/06 20:20:16;;;;;;;6.10;3.95;;;;;;;;;;8279660;28;20143;-56
2023/12/06 20:24:17;;;;;;;4.85;3.65;;;;;;;;;;8274601;28;20013;-56
2023/12/06 20:28:17;;;;;;;6.53;4.70;;;;;;;;;;8280709;28;20486;-57
2023/12/06 20:32:17;;;;;;;7.50;3.70;;;;;;;;;;8281005;28;20041;-56
2023/12/06 20:36:18;;;;;;;5.80;4.22;;;;;;;;;;8283196;28;20071;-57
2023/12/06 20:40:18;;;;;;;9.13;4.45;;;;;;;;;;8280222;28;20032;-57
2023/12/06 20:44:18;;;;;;;7.63;4.07;;;;;;;;;;8280031;28;20021;-57
2023/12/06 20:48:18;;;;;;;8.25;4.05;;;;;;;;;;8278267;28;20288;-56
2023/12/06 20:52:19;;;;;;;8.45;4.20;;;;;;;;;;8277489;28;20029;-57
2023/12/06 20:56:19;;;;;;;6.67;4.60;;;;;;;;;;8279677;28;20116;-55
2023/12/06 21:00:20;;;;;;;7.07;4.50;;;;;;;;;;8277402;28;20314;-56
2023/12/06 21:04:20;;;;;;;8.65;3.95;;;;;;;;;;8277764;28;20024;-56
2023/12/06 21:08:20;;;;;;;5.70;3.88;;;;;;;;;;8275260;28;20017;-59
2023/12/06 21:12:20;;;;;;;9.03;4.03;;;;;;;;;;8266128;28;20128;-58
2023/12/06 21:16:21;;;;;;;9.02;4.32;;;;;;;;;;8277628;28;20342;-57
2023/12/06 21:20:21;;;;;;;6.68;4.15;;;;;;;;;;8275009;28;20032;-57
2023/12/06 21:24:23;;;;;;;6.30;3.88;;;;;;;;;;8276055;28;20086;-57
2023/12/06 21:28:24;;;;;;;9.25;5.05;;;;;;;;;;8282943;28;20036;-57
2023/12/06 21:32:24;;;;;;;9.65;4.22;;;;;;;;;;8273512;28;20593;-57
2023/12/06 21:36:24;;;;;;;6.63;4.50;;;;;;;;;;8275412;28;20545;-57
2023/12/06 21:40:24;;;;;;;7.78;4.85;;;;;;;;;;8272563;28;20388;-57
2023/12/06 21:44:24;;;;;;;7.97;4.00;;;;;;;;;;8272992;28;20025;-57
2023/12/06 21:48:25;;;;;;;8.25;4.55;;;;;;;;;;8274252;28;20041;-56
2023/12/06 21:52:25;;;;;;;5.50;4.32;;;;;;;;;;8270422;28;20029;-57
2023/12/06 21:56:25;;;;;;;8.82;4.45;;;;;;;;;;8274176;28;20515;-57
2023/12/06 22:00:25;;;;;;;7.80;4.03;;;;;;;;;;8272717;28;20135;-57
2023/12/06 22:04:26;;;;;;;10.50;4.47;;;;;;;;;;8274457;28;20551;-57
2023/12/06 22:08:26;;;;;;;9.90;4.32;;;;;;;;;;8272144;28;20279;-58
2023/12/06 22:12:26;;;;;;;10.65;4.47;;;;;;;;;;8276570;28;20112;-58
2023/12/06 22:16:26;;;;;;;8.68;4.25;;;;;;;;;;8274399;28;20051;-57
2023/12/06 22:20:27;;;;;;;7.73;4.47;;;;;;;;;;8274885;28;20850;-57
2023/12/06 22:24:27;;;;;;;10.43;4.60;;;;;;;;;;8272908;28;20272;-58
2023/12/06 22:28:27;;;;;;;8.00;4.72;;;;;;;;;;8276641;28;20283;-56
2023/12/06 22:32:28;;;;;;;5.68;4.50;;;;;;;;;;8274709;28;20063;-57
2023/12/06 22:36:28;;;;;;;10.18;4.65;;;;;;;;;;8272275;28;20021;-57
2023/12/06 22:40:29;;;;;;;8.05;4.80;;;;;;;;;;8270762;28;20036;-56
2023/12/06 22:44:29;;;;;;;7.85;4.53;;;;;;;;;;8258150;28;20023;-56
2023/12/06 22:48:29;;;;;;;14.80;5.22;;;;;;;;;;8266786;28;20131;-57
2023/12/06 22:52:29;;;;;;;12.05;4.30;;;;;;;;;;8266553;28;20083;-57
2023/12/06 22:56:30;;;;;;;8.63;4.38;;;;;;;;;;8267214;28;20406;-56
2023/12/06 23:00:30;;;;;;;5.78;3.75;;;;;;;;;;8268095;28;20107;-55
2023/12/06 23:04:30;;;;;;;6.40;4.10;;;;;;;;;;8267927;28;20017;-57
2023/12/06 23:08:30;;;;;;;10.05;5.25;;;;;;;;;;8269896;28;20781;-56
2023/12/06 23:12:31;;;;;;;6.75;4.70;;;;;;;;;;8269674;28;20032;-56
2023/12/06 23:16:31;;;;;;;7.78;4.38;;;;;;;;;;8276636;28;20048;-56
2023/12/06 23:20:32;;;;;;;9.20;4.70;;;;;;;;;;8275256;28;20025;-56
2023/12/06 23:24:32;;;;;;;10.15;4.30;;;;;;;;;;8269588;28;20268;-56
2023/12/06 23:28:32;;;;;;;9.37;4.90;;;;;;;;;;8265495;28;20108;-57
2023/12/06 23:32:33;;;;;;;9.98;5.03;;;;;;;;;;8273768;28;20296;-58
2023/12/06 23:36:33;;;;;;;9.57;5.18;;;;;;;;;;8276862;28;20033;-58
2023/12/06 23:40:33;;;;;;;9.35;4.93;;;;;;;;;;8276450;28;20858;-57
2023/12/06 23:44:33;;;;;;;8.73;5.40;;;;;;;;;;8274808;28;20021;-57
2023/12/06 23:48:34;;;;;;;10.83;5.90;;;;;;;;;;8271160;28;20136;-57
2023/12/06 23:52:35;;;;;;;8.52;5.13;;;;;;;;;;8271992;28;20333;-58
2023/12/06 23:56:35;;;;;;;8.83;4.97;;;;;;;;;;8281786;28;20025;-56
